Orbital elements of COSMOS 2251 DEB
| Launched | 15 June 1993 |
| Flight ended | – |
| Launch site | Plesetsk Missile and Space Complex, Russia |
| Owner | Commonwealth of Independent States (former USSR) |
| NORAD ID | 34680 |
| Date fetched |
Epoch osculation |
Inc. [°] |
Ecc. | RA asc node [hr] |
Arg Peri. [°] |
Mean anom [°] |
Mean motion [rev/day] |
Abs. mag |
| Date fetched |
Epoch osculation |
Inc. [°] |
Ecc. | RA asc node [hr] |
Arg Peri. [°] |
Mean anom [°] |
Mean motion [rev/day] |
Abs. mag |
| 2026 May 03 17:57 | 2026 Apr 30 08:54:27 | 74.0433 | 0.00073 | 14.9884 | 283.4979 | 140.8467 | 14.62092 | – |
| 2026 May 02 17:57 | 2026 Apr 30 08:54:27 | 74.0433 | 0.00073 | 14.9884 | 283.4979 | 140.8467 | 14.62092 | – |
| 2026 May 01 17:56 | 2026 Apr 30 08:54:27 | 74.0433 | 0.00073 | 14.9884 | 283.4979 | 140.8467 | 14.62092 | – |
| 2026 Apr 30 17:56 | 2026 Apr 30 08:54:27 | 74.0433 | 0.00073 | 14.9884 | 283.4979 | 140.8467 | 14.62092 | – |
| 2026 Apr 29 17:57 | 2026 Apr 22 08:37:30 | 74.0419 | 0.00069 | 16.0105 | 298.9953 | 140.8467 | 14.62092 | – |
| 2026 Apr 28 17:56 | 2026 Apr 22 08:37:30 | 74.0419 | 0.00069 | 16.0105 | 298.9953 | 140.8467 | 14.62092 | – |
| 2026 Apr 27 17:58 | 2026 Apr 22 08:37:30 | 74.0419 | 0.00069 | 16.0105 | 298.9953 | 140.8467 | 14.62092 | – |
| 2026 Apr 26 17:58 | 2026 Apr 22 08:37:30 | 74.0419 | 0.00069 | 16.0105 | 298.9953 | 140.8467 | 14.62092 | – |
| 2026 Apr 25 17:58 | 2026 Apr 22 08:37:30 | 74.0419 | 0.00069 | 16.0105 | 298.9953 | 140.8467 | 14.62092 | – |
| 2026 Apr 24 17:59 | 2026 Apr 22 08:37:30 | 74.0419 | 0.00069 | 16.0105 | 298.9953 | 140.8467 | 14.62092 | – |
| 2026 Apr 23 17:57 | 2026 Apr 19 08:19:11 | 74.0423 | 0.00067 | 16.3948 | 305.0906 | 140.8467 | 14.62092 | – |
| 2026 Apr 22 17:57 | 2026 Apr 19 08:19:11 | 74.0423 | 0.00067 | 16.3948 | 305.0906 | 140.8467 | 14.62092 | – |
| 2026 Apr 21 17:57 | 2026 Apr 19 08:19:11 | 74.0423 | 0.00067 | 16.3948 | 305.0906 | 140.8467 | 14.62092 | – |
| 2026 Apr 20 17:57 | 2026 Apr 19 08:19:11 | 74.0423 | 0.00067 | 16.3948 | 305.0906 | 140.8467 | 14.62092 | – |
| 2026 Apr 19 17:58 | 2026 Apr 19 08:19:11 | 74.0423 | 0.00067 | 16.3948 | 305.0906 | 140.8467 | 14.62092 | – |
| 2026 Apr 18 17:56 | 2026 Apr 12 20:53:20 | 74.0413 | 0.00064 | 17.2210 | 318.4806 | 140.8467 | 14.62092 | – |
| 2026 Apr 16 17:57 | 2026 Apr 12 20:53:20 | 74.0413 | 0.00064 | 17.2210 | 318.4806 | 140.8467 | 14.62092 | – |
| 2026 Apr 14 17:57 | 2026 Apr 12 20:53:20 | 74.0413 | 0.00064 | 17.2210 | 318.4806 | 140.8467 | 14.62092 | – |
| 2026 Apr 13 17:57 | 2026 Apr 12 20:53:20 | 74.0413 | 0.00064 | 17.2210 | 318.4806 | 140.8467 | 14.62092 | – |
| 2026 Apr 12 17:57 | 2026 Apr 07 17:05:05 | 74.0418 | 0.00062 | 17.8791 | 329.5928 | 140.8467 | 14.62092 | – |
| 2026 Apr 11 17:57 | 2026 Apr 07 17:05:05 | 74.0418 | 0.00062 | 17.8791 | 329.5928 | 140.8467 | 14.62092 | – |
| 2026 Apr 10 17:58 | 2026 Apr 07 17:05:05 | 74.0418 | 0.00062 | 17.8791 | 329.5928 | 140.8467 | 14.62092 | – |
| 2026 Apr 09 18:01 | 2026 Apr 07 17:05:05 | 74.0418 | 0.00062 | 17.8791 | 329.5928 | 140.8467 | 14.62092 | – |
| 2026 Apr 08 17:57 | 2026 Apr 07 17:05:05 | 74.0418 | 0.00062 | 17.8791 | 329.5928 | 140.8467 | 14.62092 | – |
| 2026 Apr 07 17:57 | 2026 Apr 02 06:25:41 | 74.0412 | 0.00059 | 18.5736 | 341.6854 | 140.8467 | 14.62092 | – |
| 2026 Apr 06 17:57 | 2026 Apr 02 06:25:41 | 74.0412 | 0.00059 | 18.5736 | 341.6854 | 140.8467 | 14.62092 | – |